createdAt,value
2022-11-10T00:00:12.390Z,13.20
2022-11-10T00:05:12.334Z,13.15
2022-11-10T00:10:12.281Z,12.93
2022-11-10T00:15:12.245Z,12.87
2022-11-10T00:20:12.173Z,12.99
2022-11-10T00:25:12.274Z,13.13
2022-11-10T05:00:33.534Z,11.55
2022-11-10T05:05:33.356Z,11.86
2022-11-10T05:10:33.363Z,11.96
2022-11-10T05:15:40.335Z,12.06
2022-11-10T05:20:33.217Z,11.98
2022-11-10T05:25:33.144Z,11.84
2022-11-10T05:30:33.103Z,11.67
2022-11-10T05:35:33.075Z,11.65
2022-11-10T05:40:32.983Z,11.74
2022-11-10T05:45:32.928Z,11.86
2022-11-10T05:50:32.876Z,11.89
2022-11-10T05:55:33.858Z,11.88
2022-11-10T06:00:32.762Z,11.86
2022-11-10T06:05:32.736Z,11.81
2022-11-10T06:10:32.657Z,11.95
2022-11-10T06:15:32.641Z,11.90
2022-11-10T06:20:32.584Z,11.79
2022-11-10T06:25:32.504Z,11.78
2022-11-10T06:30:32.444Z,11.63
2022-11-10T06:35:32.404Z,11.23
2022-11-10T06:40:32.344Z,11.32
2022-11-10T06:45:32.281Z,11.16
2022-11-10T06:50:32.245Z,11.07
2022-11-10T06:55:32.187Z,10.95
2022-11-10T07:00:32.128Z,10.96
2022-11-10T07:05:32.065Z,10.94
2022-11-10T07:10:32.015Z,10.87
2022-11-10T07:15:31.991Z,10.84
2022-11-10T07:20:31.935Z,10.94
2022-11-10T07:25:31.861Z,11.27
2022-11-10T07:30:31.801Z,11.59
2022-11-10T07:35:31.768Z,11.94
2022-11-10T07:40:31.694Z,12.27
2022-11-10T07:45:31.648Z,12.32
2022-11-10T07:50:31.709Z,12.50
2022-11-10T07:55:31.642Z,12.57
2022-11-10T08:00:31.595Z,12.80
2022-11-10T08:05:31.419Z,13.04
2022-11-10T08:10:31.387Z,13.04
2022-11-10T08:15:31.355Z,13.42
2022-11-10T08:20:31.324Z,13.49
2022-11-10T08:25:34.720Z,13.70
2022-11-10T08:30:31.187Z,13.92
2022-11-10T08:35:31.099Z,14.00
2022-11-10T08:40:31.041Z,14.16
2022-11-10T08:45:30.987Z,14.55
2022-11-10T08:50:30.932Z,14.59
2022-11-10T08:55:30.895Z,14.50
2022-11-10T09:00:30.821Z,14.66
2022-11-10T09:05:30.778Z,14.50
2022-11-10T09:10:30.708Z,14.55
2022-11-10T09:15:30.671Z,14.72
2022-11-10T09:20:30.597Z,14.50
2022-11-10T09:25:30.548Z,14.78
2022-11-10T09:30:30.490Z,15.06
2022-11-10T09:35:30.476Z,15.05
2022-11-10T09:40:30.379Z,15.19
2022-11-10T09:45:33.913Z,15.24
2022-11-10T09:50:31.268Z,15.46
2022-11-10T09:55:30.225Z,15.50
2022-11-10T10:00:30.153Z,15.52
2022-11-10T10:05:30.104Z,15.60
2022-11-10T10:10:30.045Z,15.85
2022-11-10T10:15:29.997Z,15.73
2022-11-10T10:20:29.931Z,15.94
2022-11-10T10:25:29.880Z,15.77
2022-11-10T10:30:29.838Z,15.93
2022-11-10T10:35:29.785Z,15.97
2022-11-10T10:40:29.719Z,16.01
2022-11-10T10:45:29.680Z,16.09
2022-11-10T10:50:29.598Z,16.60
2022-11-10T10:55:29.565Z,16.35
2022-11-10T11:00:29.493Z,16.61
2022-11-10T11:05:29.441Z,16.63
2022-11-10T11:10:29.392Z,16.78
2022-11-10T11:15:29.391Z,16.89
2022-11-10T11:20:36.311Z,16.94
2022-11-10T11:25:29.220Z,16.99
2022-11-10T11:30:29.206Z,16.90
2022-11-10T11:35:29.130Z,17.04
2022-11-10T11:40:29.408Z,17.14
2022-11-10T11:45:28.982Z,17.29
2022-11-10T11:50:28.936Z,17.18
2022-11-10T11:55:28.912Z,17.24
2022-11-10T12:00:28.832Z,17.11
2022-11-10T12:05:28.854Z,16.92
2022-11-10T12:10:28.722Z,17.01
2022-11-10T12:15:28.693Z,17.34
2022-11-10T12:20:28.614Z,17.30
2022-11-10T12:25:28.559Z,17.33
2022-11-10T12:30:28.503Z,17.33
2022-11-10T12:35:28.477Z,17.27
2022-11-10T12:40:28.402Z,17.40
2022-11-10T12:45:28.519Z,17.43
2022-11-10T12:50:28.285Z,17.32
2022-11-10T12:55:28.249Z,17.52
2022-11-10T13:00:28.750Z,17.47
2022-11-10T13:05:28.119Z,17.35
2022-11-10T13:10:28.074Z,17.40
2022-11-10T13:15:28.088Z,17.49
2022-11-10T13:20:31.452Z,17.64
2022-11-10T13:25:27.904Z,17.53
2022-11-10T13:30:27.846Z,17.46
2022-11-10T13:35:27.809Z,17.27
2022-11-10T13:40:27.737Z,17.21
2022-11-10T13:45:27.678Z,17.42
2022-11-10T13:50:27.624Z,17.23
2022-11-10T13:55:27.605Z,17.19
2022-11-10T14:00:27.515Z,17.11
2022-11-10T14:05:27.458Z,16.99
2022-11-10T14:10:27.409Z,17.04
2022-11-10T14:15:27.376Z,16.76
2022-11-10T14:20:27.296Z,16.73
2022-11-10T14:25:27.278Z,16.59
2022-11-10T14:30:27.292Z,16.58
2022-11-10T14:35:27.243Z,16.34
2022-11-10T14:40:27.107Z,16.29
2022-11-10T14:45:27.027Z,16.20
2022-11-10T14:50:26.970Z,16.11
2022-11-10T14:55:27.035Z,16.04
2022-11-10T15:00:26.855Z,15.76
2022-11-10T15:05:26.828Z,15.49
2022-11-10T15:10:26.745Z,15.35
2022-11-10T15:15:27.167Z,15.18
2022-11-10T15:20:26.633Z,15.09
2022-11-10T15:25:26.581Z,14.99
2022-11-10T15:30:26.528Z,14.85
2022-11-10T15:35:26.586Z,14.64
2022-11-10T15:40:26.415Z,14.44
2022-11-10T15:45:26.361Z,14.21
2022-11-10T15:50:26.308Z,14.03
2022-11-10T15:55:26.360Z,13.99
2022-11-10T16:00:26.199Z,13.93
2022-11-10T16:05:26.140Z,13.80
2022-11-10T16:10:26.085Z,13.75
2022-11-10T16:15:26.144Z,13.63
2022-11-10T16:20:25.976Z,13.53
2022-11-10T16:25:27.910Z,13.55
2022-11-10T16:30:25.867Z,13.57
2022-11-10T16:35:25.930Z,13.50
2022-11-10T16:40:25.952Z,13.63
2022-11-10T16:45:25.705Z,13.53
2022-11-10T16:50:25.682Z,13.55
2022-11-10T16:55:25.707Z,13.48
2022-11-10T17:00:25.540Z,13.42
2022-11-10T17:05:25.481Z,13.37
2022-11-10T17:10:25.434Z,13.19
2022-11-10T17:15:25.488Z,13.07
2022-11-10T17:20:32.358Z,12.98
2022-11-10T17:25:25.274Z,12.98
2022-11-10T17:30:25.216Z,12.86
2022-11-10T17:35:25.283Z,12.88
2022-11-10T17:40:25.117Z,12.80
2022-11-10T17:45:25.074Z,12.71
2022-11-10T17:50:25.036Z,12.66
2022-11-10T17:55:28.524Z,12.67
2022-11-10T18:00:25.897Z,12.63
2022-11-10T18:05:24.827Z,12.59
2022-11-10T18:10:24.783Z,12.68
2022-11-10T18:15:24.850Z,12.61
2022-11-10T18:20:24.665Z,12.59
2022-11-10T18:25:24.632Z,12.52
2022-11-10T18:30:24.570Z,12.42
2022-11-10T18:35:24.621Z,12.44
2022-11-10T18:40:24.460Z,12.41
2022-11-10T18:45:24.411Z,12.39
2022-11-10T18:50:24.388Z,12.31
2022-11-10T18:55:24.414Z,12.29
2022-11-10T19:00:24.248Z,12.25
2022-11-10T19:05:24.192Z,12.17
2022-11-10T19:10:24.140Z,12.12
2022-11-10T19:15:24.204Z,11.99
2022-11-10T19:20:24.031Z,11.94
2022-11-10T19:25:23.985Z,11.81
2022-11-10T19:30:23.924Z,11.77
2022-11-10T19:35:23.988Z,11.69
2022-11-10T19:40:23.820Z,11.76
2022-11-10T19:45:23.767Z,11.64
2022-11-10T19:50:23.717Z,11.60
2022-11-10T19:55:23.780Z,11.61
2022-11-10T20:00:23.613Z,11.55
2022-11-10T20:05:23.541Z,11.58
2022-11-10T20:10:23.495Z,11.53
2022-11-10T20:15:23.590Z,11.45
2022-11-10T20:20:23.386Z,11.34
2022-11-10T20:25:23.350Z,11.34
2022-11-10T20:30:23.938Z,11.33
2022-11-10T20:35:23.361Z,11.28
2022-11-10T20:40:43.293Z,11.24
2022-11-10T20:45:24.144Z,11.21
2022-11-10T20:50:24.524Z,11.22
2022-11-10T20:55:44.059Z,11.10
2022-11-10T21:00:23.963Z,11.15
2022-11-10T21:05:22.912Z,11.12
2022-11-10T21:10:22.857Z,11.10
2022-11-10T21:15:22.922Z,11.03
2022-11-10T21:20:22.754Z,11.06
2022-11-10T21:25:22.696Z,11.04
2022-11-10T21:30:22.765Z,11.10
2022-11-10T21:35:22.710Z,10.96
2022-11-10T21:40:22.523Z,11.07
2022-11-10T21:45:22.486Z,11.02
2022-11-10T21:50:22.418Z,11.03
2022-11-10T21:55:22.489Z,11.07
2022-11-10T22:00:22.307Z,11.11
2022-11-10T22:05:22.265Z,11.06
2022-11-10T22:10:22.211Z,11.02
2022-11-10T22:15:22.271Z,11.12
2022-11-10T22:20:22.103Z,11.14
2022-11-10T22:25:22.055Z,11.14
2022-11-10T22:30:21.995Z,11.22
2022-11-10T22:35:22.063Z,11.13
2022-11-10T22:40:21.890Z,11.13
2022-11-10T22:45:21.835Z,11.21
2022-11-10T22:50:21.784Z,11.25
2022-11-10T22:55:21.845Z,11.15
2022-11-10T23:00:21.695Z,11.15
2022-11-10T23:05:21.614Z,11.12
2022-11-10T23:10:21.569Z,11.16
2022-11-10T23:15:21.633Z,11.00
2022-11-10T23:20:21.461Z,11.02
2022-11-10T23:25:21.408Z,10.95
2022-11-10T23:30:21.353Z,10.92
2022-11-10T23:35:21.420Z,10.93
2022-11-10T23:40:21.248Z,10.91
2022-11-10T23:45:21.196Z,11.04
2022-11-10T23:50:21.140Z,10.90
2022-11-10T23:55:21.205Z,10.95
